Time;durP1;ratioP1;P1;durP2;ratioP2;P2;SDS_P1;SDS_P2;PMS_P1;PMS_P2;Temp;Humidity;BMP_temperature;BMP_pressure;BME280_temperature;BME280_humidity;BME280_pressure;Samples;Min_cycle;Max_cycle;Signal;HPM_P1;HPM_P2
2023/03/09 00:01:21;;;;;;;5.57;3.47;;;;;;;7.62;65.02;94014.25;5149796;27;20224;-78
2023/03/09 00:03:48;;;;;;;5.57;3.60;;;;;;;7.45;65.91;94009.72;5141772;27;20730;-78
2023/03/09 00:06:15;;;;;;;12.85;5.97;;;;;;;7.38;66.20;94017.50;5130416;27;20212;-79
2023/03/09 00:08:42;;;;;;;11.32;4.93;;;;;;;7.27;66.48;94002.78;5137240;27;20651;-76
2023/03/09 00:11:09;;;;;;;8.80;4.80;;;;;;;7.15;67.14;94011.53;5145805;27;20735;-79
2023/03/09 00:13:37;;;;;;;4.35;2.63;;;;;;;7.00;67.75;94004.75;5137465;27;20200;-79
2023/03/09 00:16:13;;;;;;;8.55;4.18;;;;;;;6.93;68.08;93996.38;5137552;27;20301;-79
2023/03/09 00:18:39;;;;;;;6.75;3.92;;;;;;;6.93;68.21;94004.47;5137192;27;20596;-79
2023/03/09 00:21:06;;;;;;;5.72;2.92;;;;;;;6.94;68.04;93992.59;5141912;27;20276;-80
2023/03/09 00:23:33;;;;;;;8.75;4.05;;;;;;;6.87;68.25;93994.16;5141547;27;20257;-78
2023/03/09 00:26:05;;;;;;;8.32;3.65;;;;;;;6.86;68.85;93997.97;5148754;27;20192;-79
2023/03/09 00:28:32;;;;;;;8.25;3.78;;;;;;;6.86;68.69;93993.38;5143310;27;20216;-79
2023/03/09 00:31:05;;;;;;;8.27;4.00;;;;;;;6.86;68.58;93998.75;5144152;27;20550;-79
2023/03/09 00:33:32;;;;;;;5.57;3.58;;;;;;;6.87;68.80;94003.03;5132603;27;20226;-80
2023/03/09 00:35:59;;;;;;;8.32;4.10;;;;;;;7.00;68.15;94007.44;5145941;27;20898;-79
2023/03/09 00:38:26;;;;;;;7.88;3.88;;;;;;;7.01;68.32;93989.38;5141045;27;20196;-80
2023/03/09 00:40:53;;;;;;;5.93;3.35;;;;;;;7.01;68.17;93978.63;5147918;27;20292;-79
2023/03/09 00:43:20;;;;;;;4.55;2.92;;;;;;;6.99;69.24;93987.00;5139693;27;20759;-77
2023/03/09 00:45:47;;;;;;;7.57;3.55;;;;;;;6.82;69.14;93981.69;5144961;27;20217;-78
2023/03/09 00:48:15;;;;;;;7.75;3.10;;;;;;;6.82;69.04;93957.47;5137665;27;20284;-76
2023/03/09 00:50:41;;;;;;;9.98;4.78;;;;;;;6.70;69.48;93968.06;5135371;27;20273;-80
2023/03/09 00:53:08;;;;;;;7.55;4.03;;;;;;;6.61;70.18;93970.00;5138174;27;20200;-77
2023/03/09 00:55:35;;;;;;;7.43;4.10;;;;;;;6.61;70.73;93970.00;5143252;27;20208;-78
2023/03/09 00:58:02;;;;;;;8.23;3.63;;;;;;;6.62;70.47;93966.97;5136225;27;20269;-79
2023/03/09 01:00:32;;;;;;;10.75;3.08;;;;;;;6.43;70.12;93958.44;5135508;27;20920;-79
2023/03/09 01:02:59;;;;;;;5.85;2.95;;;;;;;6.54;70.24;93962.41;5146892;27;20299;-78
2023/03/09 01:05:27;;;;;;;6.63;3.47;;;;;;;6.61;70.23;93967.31;5140079;27;20660;-79
2023/03/09 01:07:54;;;;;;;7.47;4.07;;;;;;;6.53;70.29;93974.28;5144884;27;20339;-79
2023/03/09 01:10:21;;;;;;;5.63;2.75;;;;;;;6.55;71.01;93971.28;5136163;27;20240;-79
2023/03/09 01:12:48;;;;;;;7.22;3.03;;;;;;;6.47;70.89;93977.44;5145034;27;20648;-79
2023/03/09 01:15:15;;;;;;;7.40;3.20;;;;;;;6.36;71.12;93980.47;5141684;27;20212;-79
2023/03/09 01:17:42;;;;;;;3.40;2.05;;;;;;;6.40;71.01;93959.91;5148148;27;20277;-77
2023/03/09 01:20:11;;;;;;;5.55;1.95;;;;;;;6.31;71.29;93953.72;5150431;27;20239;-78
2023/03/09 01:22:39;;;;;;;9.18;5.20;;;;;;;6.38;71.18;93953.25;5141577;27;20224;-77
2023/03/09 01:25:07;;;;;;;10.80;5.72;;;;;;;6.36;71.44;93958.16;5142584;27;20250;-78
2023/03/09 01:27:34;;;;;;;11.30;5.95;;;;;;;6.32;72.02;93957.19;5142654;27;20215;-78
2023/03/09 01:30:01;;;;;;;11.18;5.03;;;;;;;6.34;71.26;93931.56;5149599;27;20196;-78
2023/03/09 01:32:28;;;;;;;8.82;5.03;;;;;;;6.48;70.91;93927.91;5142939;27;20200;-78
2023/03/09 01:34:54;;;;;;;9.63;5.20;;;;;;;6.43;71.71;93964.63;5147819;27;20196;-78
2023/03/09 01:37:21;;;;;;;8.63;4.88;;;;;;;6.30;72.14;93976.31;5136955;27;20208;-78
2023/03/09 01:39:49;;;;;;;8.82;5.45;;;;;;;6.28;71.83;93940.91;5141026;27;20193;-78
2023/03/09 01:42:16;;;;;;;7.90;5.13;;;;;;;6.23;72.69;93922.25;5138675;27;20255;-79
2023/03/09 01:44:43;;;;;;;10.73;5.38;;;;;;;6.28;72.33;93940.13;5138553;27;20620;-78
2023/03/09 01:47:10;;;;;;;11.60;5.47;;;;;;;6.16;72.35;93932.66;5148849;27;20207;-77
2023/03/09 01:49:41;;;;;;;9.10;5.20;;;;;;;6.37;71.79;93922.88;5140980;27;20192;-78
2023/03/09 01:52:14;;;;;;;9.40;5.65;;;;;;;6.50;71.75;93931.06;5138285;27;20533;-78
2023/03/09 01:54:47;;;;;;;9.95;5.13;;;;;;;6.41;71.50;93929.19;5137845;27;20233;-78
2023/03/09 01:57:22;;;;;;;10.18;4.53;;;;;;;6.48;70.93;93907.19;5148476;27;20193;-79
2023/03/09 01:59:52;;;;;;;8.23;4.68;;;;;;;6.61;70.63;93900.03;5142378;27;20189;-78
2023/03/09 02:02:21;;;;;;;4.75;2.88;;;;;;;6.48;71.60;93911.78;5150430;27;20224;-77
2023/03/09 02:04:52;;;;;;;8.07;3.22;;;;;;;6.45;71.99;93928.53;5144860;27;20212;-78
2023/03/09 02:07:22;;;;;;;4.53;2.72;;;;;;;6.34;71.83;93923.50;5136315;27;20716;-78
2023/03/09 02:09:53;;;;;;;4.95;2.20;;;;;;;6.25;71.93;93925.41;5132760;27;20246;-78
2023/03/09 02:12:23;;;;;;;4.50;2.15;;;;;;;6.41;71.41;93923.03;5153637;27;20752;-78
2023/03/09 02:14:50;;;;;;;3.67;2.05;;;;;;;6.50;72.66;93952.59;5142396;27;20766;-79
2023/03/09 02:17:18;;;;;;;8.35;2.92;;;;;;;6.47;72.41;93950.53;5142670;27;20224;-78
2023/03/09 02:19:59;;;;;;;3.30;1.88;;;;;;;6.52;71.19;93935.03;5149132;27;20287;-78
2023/03/09 02:22:25;;;;;;;5.50;2.47;;;;;;;6.41;71.75;93948.03;5151967;27;20268;-78
2023/03/09 02:25:02;;;;;;;5.60;2.38;;;;;;;6.27;72.19;93928.59;5137186;27;20200;-78
2023/03/09 02:27:31;;;;;;;4.75;2.55;;;;;;;6.39;71.80;93936.78;5145081;27;20706;-78
2023/03/09 02:29:58;;;;;;;4.88;1.98;;;;;;;6.29;71.83;93945.16;5139976;27;20204;-79
2023/03/09 02:32:25;;;;;;;5.63;1.80;;;;;;;6.40;71.33;93938.38;5142314;27;20197;-76
2023/03/09 02:34:52;;;;;;;8.10;2.55;;;;;;;6.38;72.46;93956.72;5152118;27;20857;-79
2023/03/09 02:37:23;;;;;;;8.10;2.80;;;;;;;6.34;71.56;93931.56;5149590;27;20704;-80
2023/03/09 02:39:51;;;;;;;5.13;2.88;;;;;;;6.41;71.98;93948.03;5146606;27;20204;-79
2023/03/09 02:42:19;;;;;;;4.93;2.88;;;;;;;6.30;72.29;93954.81;5148715;27;20230;-79
2023/03/09 02:44:48;;;;;;;4.38;2.90;;;;;;;6.33;72.62;93964.94;5139379;27;20230;-78
2023/03/09 02:47:19;;;;;;;4.22;1.33;;;;;;;6.33;72.09;93931.88;5145460;27;20193;-78
2023/03/09 02:49:46;;;;;;;3.67;2.42;;;;;;;6.36;72.39;93926.66;5144177;27;20197;-79
2023/03/09 02:52:13;;;;;;;5.05;3.20;;;;;;;6.41;72.99;93939.97;5135792;27;20285;-78
2023/03/09 02:54:39;;;;;;;4.15;2.15;;;;;;;6.39;72.21;93944.88;5147213;27;20192;-78
2023/03/09 02:57:06;;;;;;;4.43;2.10;;;;;;;6.18;73.34;93945.81;5152858;27;20200;-79
2023/03/09 02:59:33;;;;;;;3.90;1.85;;;;;;;6.30;73.25;93952.13;5150699;27;20200;-78
2023/03/09 03:02:02;;;;;;;4.38;2.83;;;;;;;6.33;72.37;93964.94;5149071;27;20838;-78
2023/03/09 03:04:29;;;;;;;5.22;2.35;;;;;;;6.38;72.24;93962.09;5141465;27;20658;-77
2023/03/09 03:06:55;;;;;;;2.53;1.45;;;;;;;6.41;71.83;93958.78;5149813;27;20201;-77
2023/03/09 03:09:22;;;;;;;7.45;3.22;;;;;;;6.51;71.75;93964.94;5142433;27;20192;-78
2023/03/09 03:11:49;;;;;;;11.48;2.10;;;;;;;6.58;71.21;93954.47;5149324;27;20189;-78
2023/03/09 03:14:16;;;;;;;4.43;2.17;;;;;;;6.70;70.93;93962.69;5140192;27;20298;-79
2023/03/09 03:16:42;;;;;;;4.80;1.85;;;;;;;6.63;70.67;93940.88;5135849;27;20699;-78
2023/03/09 03:19:10;;;;;;;4.20;2.08;;;;;;;6.69;71.21;93958.44;5142588;27;20200;-78
2023/03/09 03:21:37;;;;;;;3.58;2.33;;;;;;;6.71;71.31;93973.13;5144009;27;20197;-78
2023/03/09 03:24:04;;;;;;;3.08;2.03;;;;;;;6.61;71.28;93970.78;5152436;27;20306;-78
2023/03/09 03:26:31;;;;;;;4.45;2.10;;;;;;;6.59;72.11;93964.91;5148818;27;20296;-79
2023/03/09 03:28:58;;;;;;;3.78;2.40;;;;;;;6.68;72.91;93964.94;5141654;27;20193;-78
2023/03/09 03:31:25;;;;;;;3.35;2.10;;;;;;;6.80;70.94;93967.75;5145433;27;20193;-78
2023/03/09 03:33:52;;;;;;;5.75;2.03;;;;;;;6.83;70.66;93982.47;5134842;27;20205;-78
2023/03/09 03:36:20;;;;;;;4.97;1.98;;;;;;;6.78;69.87;93970.75;5149849;27;20741;-80
2023/03/09 03:38:47;;;;;;;13.57;2.78;;;;;;;6.85;69.98;93969.47;5152282;27;20200;-79
2023/03/09 03:41:14;;;;;;;2.95;1.75;;;;;;;6.97;70.03;93962.31;5136846;27;20865;-78
2023/03/09 03:43:40;;;;;;;2.80;1.98;;;;;;;6.85;70.26;93977.53;5143566;27;20769;-78
2023/03/09 03:46:07;;;;;;;3.47;2.00;;;;;;;6.79;70.58;93976.94;5151694;27;20192;-78
2023/03/09 03:48:34;;;;;;;3.15;1.88;;;;;;;6.59;71.01;93977.59;5143679;27;20242;-78
2023/03/09 03:51:01;;;;;;;4.68;2.25;;;;;;;6.58;72.08;93976.78;5133132;27;20605;-78
2023/03/09 03:53:29;;;;;;;6.40;2.25;;;;;;;6.64;71.74;93980.13;5143211;27;20257;-78
2023/03/09 03:55:56;;;;;;;3.28;1.90;;;;;;;6.65;71.46;93989.78;5136525;27;20608;-78
2023/03/09 03:58:23;;;;;;;3.40;2.03;;;;;;;6.53;71.88;93973.50;5140699;27;20562;-79
2023/03/09 04:00:50;;;;;;;2.22;1.52;;;;;;;6.69;71.11;93958.44;5135599;27;20189;-78
2023/03/09 04:03:17;;;;;;;2.50;1.73;;;;;;;6.65;72.00;93962.88;5149261;27;20224;-80
2023/03/09 04:05:43;;;;;;;5.75;1.85;;;;;;;6.40;71.92;93959.91;5134636;27;20288;-78
2023/03/09 04:08:10;;;;;;;3.38;2.33;;;;;;;6.47;71.58;93970.16;5144000;27;20240;-77
2023/03/09 04:10:40;;;;;;;3.17;1.55;;;;;;;6.34;71.96;93969.22;5135057;27;20261;-79
2023/03/09 04:13:06;;;;;;;3.80;1.98;;;;;;;6.27;72.82;93982.38;5144700;27;20261;-79
2023/03/09 04:15:34;;;;;;;4.60;2.00;;;;;;;6.21;73.50;93978.22;5142429;27;20197;-78
2023/03/09 04:18:00;;;;;;;7.50;1.85;;;;;;;6.18;73.00;93954.66;5141779;27;20231;-79
2023/03/09 04:20:27;;;;;;;5.15;2.20;;;;;;;6.45;72.09;93971.59;5132287;27;20197;-78
2023/03/09 04:22:54;;;;;;;5.00;1.90;;;;;;;6.50;71.25;93963.38;5142787;27;20232;-79
2023/03/09 04:25:21;;;;;;;8.05;2.88;;;;;;;6.42;72.22;93963.03;5143167;27;20249;-78
2023/03/09 04:27:51;;;;;;;7.05;1.77;;;;;;;6.42;71.98;93946.91;5132328;27;20254;-79
2023/03/09 04:30:20;;;;;;;3.35;2.22;;;;;;;6.33;72.40;93948.81;5141066;27;20212;-79
2023/03/09 04:32:47;;;;;;;3.65;1.70;;;;;;;6.26;73.33;93951.19;5136057;27;20207;-78
2023/03/09 04:35:14;;;;;;;4.78;1.75;;;;;;;6.19;73.30;93942.00;5136364;27;20195;-78
2023/03/09 04:37:41;;;;;;;4.50;2.00;;;;;;;6.14;73.75;93948.34;5145255;27;20543;-77
2023/03/09 04:40:09;;;;;;;3.97;2.05;;;;;;;5.98;74.28;93942.66;5134065;27;20506;-79
2023/03/09 04:42:36;;;;;;;6.38;3.03;;;;;;;5.94;75.09;93935.53;5140386;27;20224;-79
2023/03/09 04:45:05;;;;;;;7.07;2.95;;;;;;;5.90;75.83;93942.63;5146764;27;20212;-79
2023/03/09 04:47:32;;;;;;;8.43;2.08;;;;;;;5.71;75.59;93926.78;5147609;27;20201;-79
2023/03/09 04:49:59;;;;;;;8.60;3.60;;;;;;;5.90;76.43;93939.94;5144615;27;20192;-79
2023/03/09 04:52:26;;;;;;;3.97;1.98;;;;;;;5.95;75.97;93926.34;5137616;27;20197;-78
2023/03/09 04:55:00;;;;;;;5.88;3.33;;;;;;;5.86;75.80;93920.16;5140098;27;20238;-78
2023/03/09 04:57:27;;;;;;;2.90;1.90;;;;;;;5.89;75.82;93936.47;5139105;27;20179;-79
2023/03/09 04:59:54;;;;;;;7.15;2.13;;;;;;;5.88;76.18;93931.38;5149034;27;20669;-78
2023/03/09 05:02:23;;;;;;;4.78;2.15;;;;;;;5.93;76.46;93933.94;5147099;27;20237;-78
2023/03/09 05:04:49;;;;;;;6.53;2.88;;;;;;;5.80;76.30;93922.19;5145935;27;20193;-80
2023/03/09 05:07:16;;;;;;;9.90;1.98;;;;;;;5.90;76.51;93939.94;5149105;27;20196;-83
2023/03/09 05:09:43;;;;;;;7.45;2.90;;;;;;;5.78;76.65;93931.66;5148294;27;20188;-81
2023/03/09 05:12:10;;;;;;;6.53;2.78;;;;;;;6.13;76.44;93932.53;5148319;27;20699;-79
2023/03/09 05:14:37;;;;;;;8.18;3.13;;;;;;;6.63;74.29;93935.50;5144134;27;20197;-79
2023/03/09 05:17:04;;;;;;;4.22;2.40;;;;;;;6.35;74.39;93925.09;5148276;27;20224;-79
2023/03/09 05:19:35;;;;;;;9.65;2.95;;;;;;;6.40;74.72;93927.63;5150277;27;20200;-79
2023/03/09 05:22:03;;;;;;;6.03;2.97;;;;;;;6.43;74.95;93926.16;5138324;27;20200;-79
2023/03/09 05:24:30;;;;;;;14.57;3.42;;;;;;;6.47;74.92;93942.47;5147826;27;20228;-80
2023/03/09 05:26:57;;;;;;;5.43;2.70;;;;;;;6.10;75.26;93912.44;5142740;27;20224;-80
2023/03/09 05:29:24;;;;;;;8.20;2.97;;;;;;;6.50;75.30;93925.69;5135086;27;20251;-80
2023/03/09 05:31:50;;;;;;;4.28;2.47;;;;;;;7.66;72.79;93929.69;5141744;27;20193;-78
2023/03/09 05:34:18;;;;;;;6.90;3.38;;;;;;;9.41;67.70;93936.75;5143933;27;20215;-79
2023/03/09 05:36:46;;;;;;;8.35;3.38;;;;;;;10.68;60.65;93918.94;5138159;27;20808;-80
2023/03/09 05:39:12;;;;;;;6.75;3.03;;;;;;;10.76;59.75;93925.38;5149279;27;20279;-79
2023/03/09 05:41:40;;;;;;;3.08;2.05;;;;;;;10.61;59.05;93929.59;5138712;27;20351;-78
2023/03/09 05:44:06;;;;;;;10.15;4.55;;;;;;;10.13;60.30;93937.81;5136671;27;20225;-78
2023/03/09 05:46:33;;;;;;;7.90;3.63;;;;;;;9.65;62.90;93942.16;5141515;27;20277;-79
2023/03/09 05:49:00;;;;;;;9.48;3.65;;;;;;;9.98;61.32;93945.50;5146061;27;20208;-80
2023/03/09 05:51:27;;;;;;;10.95;4.10;;;;;;;10.26;61.11;93928.56;5141406;27;20640;-79
2023/03/09 05:53:55;;;;;;;14.88;4.80;;;;;;;10.34;60.95;93946.63;5146481;27;20203;-80
2023/03/09 05:56:23;;;;;;;9.65;3.50;;;;;;;10.57;60.43;93944.16;5150660;27;20196;-80
2023/03/09 05:58:51;;;;;;;10.25;2.70;;;;;;;10.72;60.04;93937.22;5149177;27;20204;-79
2023/03/09 06:01:20;;;;;;;15.98;3.75;;;;;;;10.98;58.61;93948.41;5140462;27;20208;-78
2023/03/09 06:03:48;;;;;;;10.52;4.20;;;;;;;11.26;58.13;93943.72;5146822;27;20224;-80
2023/03/09 06:06:16;;;;;;;8.80;3.00;;;;;;;10.61;59.86;93959.41;5140572;27;20200;-78
2023/03/09 06:08:43;;;;;;;7.55;3.22;;;;;;;10.99;58.40;93949.97;5136664;27;20200;-79
2023/03/09 06:11:12;;;;;;;12.88;3.97;;;;;;;11.61;57.08;93965.53;5139368;27;20285;-79
2023/03/09 06:13:38;;;;;;;7.30;3.22;;;;;;;11.80;56.35;93972.19;5149181;27;20653;-79
2023/03/09 06:16:06;;;;;;;9.45;4.18;;;;;;;12.37;54.98;93955.31;5138159;27;20325;-80
2023/03/09 06:18:34;;;;;;;6.70;3.10;;;;;;;12.93;52.97;93963.84;5143483;27;20206;-79
2023/03/09 06:21:02;;;;;;;6.93;2.65;;;;;;;13.16;52.06;93947.59;5145866;27;20204;-79
2023/03/09 06:23:28;;;;;;;5.28;2.92;;;;;;;13.09;52.60;93955.63;5154496;27;20251;-80
2023/03/09 06:25:55;;;;;;;5.15;3.13;;;;;;;12.80;51.33;93949.63;5153726;27;20224;-79
2023/03/09 06:28:24;;;;;;;7.28;3.45;;;;;;;13.34;50.50;93951.44;5140122;27;20200;-80
2023/03/09 06:30:51;;;;;;;7.93;4.20;;;;;;;13.04;50.23;93947.75;5153714;27;20200;-79
2023/03/09 06:33:18;;;;;;;7.38;3.30;;;;;;;13.12;50.69;93950.22;5147296;27;20617;-79
2023/03/09 06:35:44;;;;;;;9.90;2.70;;;;;;;12.94;50.65;93943.69;5147818;27;20937;-79
2023/03/09 06:38:11;;;;;;;5.22;2.97;;;;;;;12.42;51.75;93949.59;5140218;27;20245;-80
2023/03/09 06:40:38;;;;;;;8.48;2.70;;;;;;;11.86;52.92;93962.66;5140987;27;20632;-82
2023/03/09 06:43:05;;;;;;;4.05;2.40;;;;;;;11.78;53.13;93960.91;5148216;27;20224;-78
2023/03/09 06:45:33;;;;;;;6.30;2.30;;;;;;;10.92;55.00;93944.38;5147202;27;20752;-82
2023/03/09 06:48:00;;;;;;;5.07;2.70;;;;;;;11.03;55.46;93951.66;5140294;27;20547;-79
2023/03/09 06:50:27;;;;;;;3.72;2.25;;;;;;;10.70;55.86;93943.00;5153502;27;20727;-80
2023/03/09 06:52:54;;;;;;;5.55;2.42;;;;;;;10.57;56.38;93944.94;5133518;27;20266;-81
2023/03/09 06:55:20;;;;;;;4.85;2.03;;;;;;;10.40;56.64;93933.59;5146128;27;20200;-83
2023/03/09 06:57:47;;;;;;;7.32;2.95;;;;;;;9.85;58.31;93941.25;5139823;27;20200;-76
2023/03/09 07:00:15;;;;;;;3.25;2.10;;;;;;;10.28;57.85;93948.75;5139197;27;20204;-80
2023/03/09 07:02:43;;;;;;;5.97;2.45;;;;;;;10.34;57.22;93935.78;5145717;27;20193;-81
2023/03/09 07:05:10;;;;;;;3.47;2.03;;;;;;;10.17;57.92;93936.00;5147681;27;20575;-80
2023/03/09 07:07:37;;;;;;;5.28;2.30;;;;;;;10.26;57.79;93933.97;5145043;27;20620;-81
2023/03/09 07:10:05;;;;;;;6.38;2.95;;;;;;;10.59;56.79;93923.75;5148112;27;20260;-81
2023/03/09 07:12:31;;;;;;;6.07;2.72;;;;;;;10.65;56.93;93925.09;5143981;27;20801;-80
2023/03/09 07:14:58;;;;;;;13.73;3.75;;;;;;;10.99;56.32;93928.28;5134413;27;20201;-81
2023/03/09 07:17:25;;;;;;;5.68;2.60;;;;;;;11.02;56.63;93928.41;5143553;27;20707;-81
2023/03/09 07:19:53;;;;;;;8.27;3.17;;;;;;;11.19;55.91;93924.59;5147162;27;20200;-81
2023/03/09 07:22:20;;;;;;;2.35;1.10;;;;;;;11.08;55.11;93926.19;5143604;27;20196;-83
2023/03/09 07:24:47;;;;;;;3.05;2.13;;;;;;;10.57;56.28;93936.03;5154465;27;20231;-82
2023/03/09 07:27:14;;;;;;;4.97;2.80;;;;;;;10.57;57.07;93934.13;5153711;27;20256;-80
2023/03/09 07:29:41;;;;;;;11.68;3.40;;;;;;;10.88;56.51;93928.00;5144829;27;20574;-80
2023/03/09 07:32:08;;;;;;;6.95;3.53;;;;;;;11.24;55.07;93946.00;5156771;27;20208;-80
2023/03/09 07:34:35;;;;;;;4.97;3.38;;;;;;;11.61;54.27;93948.47;5158331;27;20203;-81
2023/03/09 07:37:04;;;;;;;4.88;3.45;;;;;;;11.25;54.64;93947.56;5153565;27;20488;-81
2023/03/09 07:39:31;;;;;;;6.40;3.17;;;;;;;11.06;55.21;93958.31;5149136;27;20221;-82
2023/03/09 07:41:58;;;;;;;5.15;3.00;;;;;;;11.20;55.43;93955.97;5135647;27;20197;-84
2023/03/09 07:44:25;;;;;;;8.90;4.03;;;;;;;11.23;55.27;93957.97;5139847;27;20276;-82
2023/03/09 07:46:51;;;;;;;9.30;4.57;;;;;;;11.37;54.67;93950.19;5154914;27;20204;-78
2023/03/09 07:49:18;;;;;;;8.57;3.53;;;;;;;11.66;54.51;93945.47;5154381;27;20200;-80
2023/03/09 07:51:45;;;;;;;8.57;4.93;;;;;;;11.83;53.34;93945.16;5140509;27;20193;-78
2023/03/09 07:54:14;;;;;;;3.30;2.42;;;;;;;11.72;53.76;93927.81;5146213;27;20205;-86
2023/03/09 07:56:41;;;;;;;5.80;2.78;;;;;;;11.41;54.50;93939.44;5144401;27;20200;-78
2023/03/09 07:59:13;;;;;;;9.95;3.53;;;;;;;11.51;54.86;93935.41;5137038;27;20196;-80
2023/03/09 08:01:40;;;;;;;7.00;3.88;;;;;;;11.35;54.91;93941.63;5146612;27;20260;-81
2023/03/09 08:04:07;;;;;;;8.60;4.10;;;;;;;11.32;55.20;93936.91;5146579;27;20232;-80
2023/03/09 08:06:33;;;;;;;9.15;4.63;;;;;;;11.54;55.07;93946.38;5145908;27;20303;-82
2023/03/09 08:09:00;;;;;;;8.18;3.80;;;;;;;12.32;53.41;93933.84;5145897;27;20732;-81
2023/03/09 08:11:28;;;;;;;9.32;4.60;;;;;;;11.90;53.27;93939.88;5145658;27;20327;-82
2023/03/09 08:13:55;;;;;;;18.83;4.55;;;;;;;11.39;55.37;93941.72;5152651;27;20201;-83
2023/03/09 08:16:22;;;;;;;12.75;6.32;;;;;;;11.60;54.75;93952.31;5138248;27;20224;-79
2023/03/09 08:18:49;;;;;;;5.50;3.70;;;;;;;11.39;55.25;93944.44;5138200;27;20668;-84
2023/03/09 08:21:16;;;;;;;8.27;4.13;;;;;;;11.65;54.44;93954.75;5140448;27;20204;-78
2023/03/09 08:23:43;;;;;;;8.98;3.78;;;;;;;11.95;54.55;93942.34;5144191;27;20224;-81
2023/03/09 08:26:12;;;;;;;6.18;3.90;;;;;;;12.43;52.79;93934.88;5146501;27;20296;-83
2023/03/09 08:28:41;;;;;;;6.53;3.10;;;;;;;12.27;53.14;93936.84;5147197;27;20256;-83
2023/03/09 08:31:10;;;;;;;8.25;4.35;;;;;;;12.55;52.54;93937.47;5139410;27;20201;-82
2023/03/09 08:33:37;;;;;;;6.20;3.22;;;;;;;12.32;52.98;93933.84;5152524;27;20687;-80
2023/03/09 08:36:11;;;;;;;6.72;4.10;;;;;;;12.47;53.18;93930.28;5149737;27;20303;-76
2023/03/09 08:38:38;;;;;;;11.40;3.42;;;;;;;12.00;54.19;93928.50;5141643;27;20310;-78
2023/03/09 08:41:05;;;;;;;5.22;2.67;;;;;;;12.34;53.33;93926.13;5138180;27;20200;-83
2023/03/09 08:43:32;;;;;;;4.53;2.45;;;;;;;12.35;53.20;93917.63;5140821;27;20746;-83
2023/03/09 08:46:00;;;;;;;7.95;3.20;;;;;;;12.32;53.58;93922.97;5147652;27;20686;-83
2023/03/09 08:48:27;;;;;;;10.93;3.67;;;;;;;12.86;52.77;93919.41;5143292;27;20200;-83
2023/03/09 08:50:53;;;;;;;5.32;2.83;;;;;;;13.05;51.88;93911.25;5148393;27;20261;-83
2023/03/09 08:53:20;;;;;;;5.28;3.38;;;;;;;12.84;51.95;93910.88;5142813;27;20699;-80
2023/03/09 08:55:47;;;;;;;8.23;3.47;;;;;;;13.04;52.44;93918.63;5147156;27;20265;-81
2023/03/09 08:58:14;;;;;;;8.23;4.57;;;;;;;13.07;51.56;93909.75;5141761;27;20202;-81
2023/03/09 09:00:41;;;;;;;8.88;3.72;;;;;;;13.06;51.41;93918.25;5136909;27;20257;-83
2023/03/09 09:03:11;;;;;;;5.68;3.30;;;;;;;12.62;53.05;93907.72;5139308;27;20201;-81
2023/03/09 09:05:38;;;;;;;8.10;4.03;;;;;;;12.72;52.99;93903.63;5149305;27;20219;-82
2023/03/09 09:08:05;;;;;;;4.18;2.78;;;;;;;12.93;51.94;93889.66;5138842;27;20254;-79
2023/03/09 09:10:33;;;;;;;8.55;3.42;;;;;;;13.26;51.67;93906.22;5143094;27;20680;-83
2023/03/09 09:13:00;;;;;;;6.10;3.05;;;;;;;13.66;50.46;93892.16;5143163;27;20224;-84
2023/03/09 09:15:27;;;;;;;7.90;3.15;;;;;;;13.52;51.03;93881.81;5133953;27;20201;-83
2023/03/09 09:17:54;;;;;;;9.55;4.88;;;;;;;13.37;51.21;93887.38;5132640;27;20263;-83
2023/03/09 09:20:22;;;;;;;8.35;4.05;;;;;;;13.30;51.38;93874.44;5150266;27;20703;-81
2023/03/09 09:22:49;;;;;;;11.40;4.72;;;;;;;12.59;53.16;93870.38;5138146;27;20699;-84
2023/03/09 09:25:16;;;;;;;12.63;4.07;;;;;;;12.62;53.26;93866.94;5151878;27;20270;-82
2023/03/09 09:27:43;;;;;;;4.75;2.90;;;;;;;13.08;52.32;93872.47;5142442;27;20245;-81
2023/03/09 09:30:11;;;;;;;8.73;3.50;;;;;;;12.96;52.31;93864.47;5139833;27;20251;-83
2023/03/09 09:32:40;;;;;;;5.13;2.70;;;;;;;12.95;52.26;93868.34;5150482;27;20249;-83
2023/03/09 09:35:07;;;;;;;2.50;1.83;;;;;;;13.08;52.04;93856.16;5145122;27;20292;-83
2023/03/09 09:37:35;;;;;;;7.43;2.78;;;;;;;13.47;51.40;93863.06;5144761;27;20293;-80
2023/03/09 09:40:02;;;;;;;8.60;3.15;;;;;;;13.32;51.55;93861.25;5142300;27;20189;-82
2023/03/09 09:42:33;;;;;;;5.60;2.88;;;;;;;13.11;52.22;93844.56;5143087;27;20233;-82
2023/03/09 09:45:02;;;;;;;2.80;2.20;;;;;;;13.24;51.87;93848.69;5138596;27;20213;-80
2023/03/09 09:47:31;;;;;;;2.50;1.77;;;;;;;13.44;51.22;93842.03;5147163;27;20435;-83
2023/03/09 09:50:01;;;;;;;7.07;2.72;;;;;;;13.82;50.79;93851.13;5140101;27;20200;-81
2023/03/09 09:52:45;;;;;;;9.00;3.00;;;;;;;14.13;49.92;93856.25;5144125;27;20228;-81
2023/03/09 09:55:19;;;;;;;5.90;2.55;;;;;;;14.05;49.81;93843.72;5145862;27;20599;-83
2023/03/09 09:57:49;;;;;;;8.48;2.72;;;;;;;13.90;50.73;93831.06;5143645;27;20189;-82
2023/03/09 10:00:20;;;;;;;12.90;3.75;;;;;;;14.01;50.95;93842.88;5148854;27;20248;-83
2023/03/09 10:03:01;;;;;;;4.03;2.53;;;;;;;13.73;50.75;93821.47;5146317;27;20193;-85
2023/03/09 10:05:35;;;;;;;6.70;3.92;;;;;;;13.93;50.61;93835.78;5147029;27;20209;-82
2023/03/09 10:08:16;;;;;;;6.45;3.30;;;;;;;14.34;49.52;93816.84;5146377;27;20188;-77
2023/03/09 10:10:44;;;;;;;6.03;2.45;;;;;;;14.52;49.68;93807.72;5140622;27;20771;-78
2023/03/09 10:13:16;;;;;;;5.15;1.98;;;;;;;14.78;48.88;93804.13;5139798;27;20419;-81
2023/03/09 10:15:44;;;;;;;4.85;1.67;;;;;;;14.61;49.23;93799.28;5147211;27;20209;-82
2023/03/09 10:18:15;;;;;;;8.52;3.20;;;;;;;14.52;49.22;93796.03;5147480;27;20575;-81
2023/03/09 10:20:47;;;;;;;7.07;2.83;;;;;;;14.92;48.79;93787.91;5134197;27;20200;-82
2023/03/09 10:23:23;;;;;;;8.07;2.92;;;;;;;14.92;48.36;93787.09;5151902;27;20224;-84
2023/03/09 10:25:53;;;;;;;8.88;3.05;;;;;;;15.09;48.37;93774.81;5154601;27;20212;-81
2023/03/09 10:28:24;;;;;;;9.15;2.70;;;;;;;14.80;49.00;93771.03;5140624;27;20252;-79
2023/03/09 10:30:58;;;;;;;5.18;2.58;;;;;;;15.09;48.65;93770.13;5146438;27;20184;-79
2023/03/09 10:33:36;;;;;;;4.95;2.63;;;;;;;15.20;47.82;93770.22;5140287;27;20196;-82
2023/03/09 10:36:07;;;;;;;8.23;2.90;;;;;;;15.51;47.89;93766.94;5139362;27;20197;-82
2023/03/09 10:38:39;;;;;;;4.40;2.33;;;;;;;15.75;46.75;93753.84;5144245;27;20289;-82
2023/03/09 10:41:15;;;;;;;12.50;2.63;;;;;;;15.95;46.35;93749.69;5146959;27;20193;-83
2023/03/09 10:43:43;;;;;;;3.67;2.20;;;;;;;16.31;46.46;93751.41;5145536;27;20184;-82
2023/03/09 10:46:14;;;;;;;5.22;2.47;;;;;;;16.60;44.94;93746.03;5135694;27;20232;-82
2023/03/09 10:48:42;;;;;;;5.80;2.38;;;;;;;16.88;44.94;93735.16;5146719;27;20220;-82
2023/03/09 10:51:24;;;;;;;4.90;1.85;;;;;;;17.10;44.83;93729.69;5140706;27;20204;-79
2023/03/09 10:53:54;;;;;;;7.82;1.98;;;;;;;17.53;44.02;93731.25;5153214;27;20570;-79
2023/03/09 10:56:23;;;;;;;3.72;1.30;;;;;;;17.69;43.36;93717.94;5154761;27;20224;-82
2023/03/09 10:59:12;;;;;;;1.95;0.90;;;;;;;18.17;43.54;93698.25;5151808;27;20233;-80
2023/03/09 11:01:40;;;;;;;4.10;1.20;;;;;;;18.24;42.68;93684.47;5146925;27;20272;-81
2023/03/09 11:04:28;;;;;;;6.40;1.08;;;;;;;18.52;41.98;93691.00;5147186;27;20201;-82
2023/03/09 11:06:57;;;;;;;3.72;1.25;;;;;;;18.38;42.49;93692.63;5146302;27;20192;-81
2023/03/09 11:09:30;;;;;;;2.30;1.15;;;;;;;18.37;42.11;93690.28;5132840;27;20225;-79
2023/03/09 11:12:10;;;;;;;1.88;1.00;;;;;;;18.44;42.01;93699.28;5151156;27;20275;-83
2023/03/09 11:14:44;;;;;;;5.35;1.55;;;;;;;18.50;42.01;93682.38;5140122;27;20201;-82
2023/03/09 11:17:31;;;;;;;1.92;1.05;;;;;;;18.65;41.62;93665.47;5132631;27;20277;-80
2023/03/09 11:20:33;;;;;;;3.60;1.33;;;;;;;18.74;41.33;93663.06;5150783;27;20196;-82
2023/03/09 11:23:20;;;;;;;4.13;1.52;;;;;;;18.95;41.31;93659.38;5068663;28;20271;-81
2023/03/09 11:26:01;;;;;;;2.90;1.30;;;;;;;18.89;40.94;93654.72;5145079;27;20652;-82
2023/03/09 11:28:39;;;;;;;2.30;1.30;;;;;;;18.86;41.39;93650.81;5140269;27;20184;-83
2023/03/09 11:31:13;;;;;;;4.63;1.20;;;;;;;18.70;40.86;93647.81;5139277;27;20270;-83
2023/03/09 11:33:40;;;;;;;7.22;1.48;;;;;;;18.67;41.39;93643.13;5153626;27;20214;-81
2023/03/09 11:36:11;;;;;;;2.67;1.02;;;;;;;18.66;41.74;93625.09;5151221;27;20628;-79
2023/03/09 11:38:41;;;;;;;2.25;1.30;;;;;;;18.93;41.65;93634.31;5143605;27;20200;-80
2023/03/09 11:41:17;;;;;;;3.55;1.00;;;;;;;19.03;39.55;93633.44;5134426;27;20201;-82
2023/03/09 11:43:47;;;;;;;1.67;1.00;;;;;;;18.96;40.39;93633.50;5144437;27;20715;-81